Time;durP1;ratioP1;P1;durP2;ratioP2;P2;SDS_P1;SDS_P2;PMS_P1;PMS_P2;Temp;Humidity;BMP_temperature;BMP_pressure;BME280_temperature;BME280_humidity;BME280_pressure;Samples;Min_cycle;Max_cycle;Signal;HPM_P1;HPM_P2
2023/07/05 00:00:30;;;;;;;20.25;8.35;;;;;;;14.56;100.00;100382.25;5012505;28;20109;-63
2023/07/05 00:02:55;;;;;;;20.27;8.18;;;;;;;14.54;100.00;100368.06;5012784;28;20440;-65
2023/07/05 00:05:21;;;;;;;21.60;8.15;;;;;;;14.53;100.00;100371.63;5012518;28;20041;-67
2023/07/05 00:07:46;;;;;;;19.52;7.65;;;;;;;14.52;100.00;100343.31;5012783;28;20032;-61
2023/07/05 00:10:12;;;;;;;20.08;7.88;;;;;;;14.50;100.00;100339.78;5012939;28;20428;-64
2023/07/05 00:12:38;;;;;;;20.10;7.47;;;;;;;14.47;100.00;100334.53;5012339;28;20026;-60
2023/07/05 00:15:04;;;;;;;19.73;7.25;;;;;;;14.38;100.00;100335.59;5012642;28;20030;-62
2023/07/05 00:17:32;;;;;;;20.17;7.32;;;;;;;14.46;100.00;100333.66;5012127;28;20069;-64
2023/07/05 00:19:58;;;;;;;19.67;6.97;;;;;;;14.47;100.00;100315.91;5012597;28;20038;-68
2023/07/05 00:22:26;;;;;;;19.60;6.97;;;;;;;14.42;100.00;100308.03;5012404;28;20057;-60
2023/07/05 00:24:53;;;;;;;20.95;7.18;;;;;;;14.43;100.00;100284.97;5012350;28;20045;-71
2023/07/05 00:27:19;;;;;;;19.50;7.07;;;;;;;14.41;100.00;100277.03;5012351;28;20474;-70
2023/07/05 00:29:44;;;;;;;20.42;7.10;;;;;;;14.41;100.00;100289.47;5012506;28;20030;-70
2023/07/05 00:32:09;;;;;;;19.40;7.18;;;;;;;14.43;100.00;100282.31;5012477;28;20030;-69
2023/07/05 00:34:35;;;;;;;19.05;6.85;;;;;;;14.39;100.00;100268.22;5012218;28;20061;-70
2023/07/05 00:37:00;;;;;;;19.20;6.93;;;;;;;14.34;100.00;100250.59;5012341;28;20034;-68
2023/07/05 00:39:26;;;;;;;19.30;7.28;;;;;;;14.33;100.00;100225.81;5012220;28;20044;-60
2023/07/05 00:41:52;;;;;;;19.92;7.00;;;;;;;14.30;100.00;100220.56;5012164;28;20034;-70
2023/07/05 00:44:17;;;;;;;18.75;6.90;;;;;;;14.26;100.00;100241.00;5015265;28;20041;-69
2023/07/05 00:46:47;;;;;;;19.63;7.00;;;;;;;14.25;100.00;100241.91;5015732;28;20034;-70
2023/07/05 00:49:15;;;;;;;19.20;7.03;;;;;;;14.26;100.00;100253.44;5011745;28;20029;-63
2023/07/05 00:51:46;;;;;;;19.13;7.03;;;;;;;14.28;100.00;100260.47;5015827;28;20097;-70
2023/07/05 00:54:13;;;;;;;19.40;6.80;;;;;;;14.25;100.00;100244.56;5015704;28;20037;-70
2023/07/05 00:56:47;;;;;;;18.10;6.57;;;;;;;14.23;100.00;100243.72;5015437;28;20034;-70
2023/07/05 00:59:13;;;;;;;19.80;7.10;;;;;;;14.23;100.00;100225.13;5015326;28;20030;-70
2023/07/05 01:01:39;;;;;;;19.45;6.53;;;;;;;14.22;100.00;100220.69;5015622;28;20104;-69
2023/07/05 01:04:05;;;;;;;17.83;6.53;;;;;;;14.25;100.00;100217.13;5015385;28;20469;-62
2023/07/05 01:06:30;;;;;;;19.08;6.75;;;;;;;14.24;100.00;100237.50;5015551;28;20026;-70
2023/07/05 01:08:56;;;;;;;20.58;6.97;;;;;;;14.27;100.00;100218.84;5015449;28;20385;-61
2023/07/05 01:11:27;;;;;;;19.75;6.82;;;;;;;14.31;100.00;100211.66;5015215;28;20382;-61
2023/07/05 01:14:04;;;;;;;18.73;6.78;;;;;;;14.29;100.00;100209.03;5015138;28;20531;-62
2023/07/05 01:16:46;;;;;;;20.10;6.70;;;;;;;14.30;100.00;100208.13;5015035;28;20030;-61
2023/07/05 01:19:30;;;;;;;18.67;6.68;;;;;;;14.27;100.00;100208.22;5015304;28;20037;-69
2023/07/05 01:22:05;;;;;;;19.33;6.60;;;;;;;14.32;100.00;100208.09;5012835;28;20041;-69
2023/07/05 01:24:45;;;;;;;19.30;6.43;;;;;;;14.32;100.00;100215.22;5014992;28;20037;-70
2023/07/05 01:27:45;;;;;;;19.50;6.32;;;;;;;14.33;100.00;100216.94;5015129;28;20033;-66
2023/07/05 01:30:32;;;;;;;18.77;6.25;;;;;;;14.36;100.00;100223.09;5015094;28;20058;-71
2023/07/05 01:33:07;;;;;;;18.75;6.85;;;;;;;14.41;100.00;100215.88;5012892;28;20130;-66
2023/07/05 01:35:37;;;;;;;20.05;6.47;;;;;;;14.39;100.00;100219.50;5015028;28;20049;-71
2023/07/05 01:38:06;;;;;;;18.02;6.10;;;;;;;14.36;100.00;100214.22;5014990;28;20022;-67
2023/07/05 01:40:31;;;;;;;17.73;6.03;;;;;;;14.41;100.00;100225.66;5014701;28;20018;-66
2023/07/05 01:43:00;;;;;;;17.27;5.63;;;;;;;14.38;100.00;100218.59;5014789;28;20026;-64
2023/07/05 01:45:46;;;;;;;17.23;5.70;;;;;;;14.35;100.00;100231.09;5014561;28;20032;-71
2023/07/05 01:48:14;;;;;;;17.83;5.85;;;;;;;14.36;100.00;100230.16;5014603;28;20100;-61
2023/07/05 01:50:51;;;;;;;18.05;5.63;;;;;;;14.34;100.00;100229.34;5014452;28;20076;-60
2023/07/05 01:53:29;;;;;;;17.75;5.10;;;;;;;14.28;100.00;100244.53;5014687;28;20030;-61
2023/07/05 01:56:20;;;;;;;16.77;5.32;;;;;;;14.19;100.00;100234.06;5010960;28;20025;-60
2023/07/05 01:58:48;;;;;;;15.88;4.93;;;;;;;14.19;100.00;100250.00;5010687;28;20033;-64
2023/07/05 02:01:16;;;;;;;15.48;5.20;;;;;;;14.17;100.00;100259.81;5010574;28;20076;-69
2023/07/05 02:03:43;;;;;;;16.23;5.07;;;;;;;14.13;100.00;100263.44;5014319;28;20022;-70
2023/07/05 02:06:10;;;;;;;16.35;5.20;;;;;;;14.06;100.00;100269.75;5014401;28;20034;-64
2023/07/05 02:08:39;;;;;;;15.55;4.38;;;;;;;13.89;100.00;100284.25;5014339;28;20108;-70
2023/07/05 02:11:05;;;;;;;12.10;3.95;;;;;;;13.77;100.00;100281.78;5014095;28;20457;-61
2023/07/05 02:13:31;;;;;;;11.80;3.72;;;;;;;13.60;100.00;100287.38;5013985;28;20080;-70
2023/07/05 02:15:56;;;;;;;14.23;3.95;;;;;;;13.50;100.00;100284.03;5014505;28;20088;-72
2023/07/05 02:18:21;;;;;;;11.60;3.40;;;;;;;13.41;100.00;100286.81;5014243;28;20038;-67
2023/07/05 02:20:47;;;;;;;10.70;3.40;;;;;;;13.30;100.00;100272.84;5014180;28;20030;-69
2023/07/05 02:23:12;;;;;;;10.73;3.38;;;;;;;13.24;100.00;100279.97;5014115;28;20092;-66
2023/07/05 02:25:38;;;;;;;10.07;3.35;;;;;;;13.02;100.00;100275.91;5013719;28;20192;-65
2023/07/05 02:28:08;;;;;;;10.25;3.60;;;;;;;12.87;100.00;100275.22;5013823;28;20084;-69
2023/07/05 02:30:35;;;;;;;13.43;3.90;;;;;;;12.76;100.00;100276.28;5013924;28;20049;-69
2023/07/05 02:33:00;;;;;;;9.02;3.55;;;;;;;12.73;100.00;100274.53;5013633;28;20034;-68
2023/07/05 02:35:26;;;;;;;12.98;3.95;;;;;;;12.66;100.00;100286.13;5013752;28;20443;-68
2023/07/05 02:37:51;;;;;;;14.88;4.10;;;;;;;12.63;100.00;100283.53;5013814;28;20496;-68
2023/07/05 02:40:16;;;;;;;10.52;3.53;;;;;;;12.64;100.00;100288.81;5013643;28;20587;-69
2023/07/05 02:42:42;;;;;;;11.90;3.90;;;;;;;12.55;100.00;100299.50;5013563;28;20120;-64
2023/07/05 02:45:07;;;;;;;12.63;3.80;;;;;;;12.47;100.00;100275.75;5013651;28;20088;-67
2023/07/05 02:47:33;;;;;;;13.48;4.15;;;;;;;12.40;100.00;100284.66;5013573;28;20040;-68
2023/07/05 02:49:58;;;;;;;13.05;4.00;;;;;;;12.29;100.00;100287.47;5013855;28;20036;-65
2023/07/05 02:52:23;;;;;;;13.90;4.10;;;;;;;12.27;100.00;100275.13;5013354;28;20381;-68
2023/07/05 02:54:49;;;;;;;13.98;4.05;;;;;;;12.22;100.00;100280.47;5013570;28;20466;-64
2023/07/05 02:57:14;;;;;;;13.38;4.10;;;;;;;12.22;100.00;100280.47;5013418;28;20026;-67
2023/07/05 02:59:39;;;;;;;14.13;4.30;;;;;;;12.21;100.00;100278.72;5013281;28;20116;-65
2023/07/05 03:02:05;;;;;;;13.88;4.20;;;;;;;12.21;100.00;100282.22;5013169;28;20120;-65
2023/07/05 03:04:30;;;;;;;14.57;4.32;;;;;;;12.19;100.00;100278.72;5013688;28;20040;-67
2023/07/05 03:06:56;;;;;;;15.35;4.10;;;;;;;12.17;100.00;100259.34;5012906;28;20029;-68
2023/07/05 03:09:21;;;;;;;15.65;4.45;;;;;;;12.01;100.00;100271.88;5013080;28;20041;-63
2023/07/05 03:11:47;;;;;;;16.48;4.82;;;;;;;12.00;100.00;100288.66;5013388;28;20037;-66
2023/07/05 03:14:13;;;;;;;15.25;4.53;;;;;;;11.92;100.00;100271.91;5013073;28;20041;-68
2023/07/05 03:16:38;;;;;;;15.50;4.60;;;;;;;11.85;100.00;100287.00;4995467;28;20358;-60
2023/07/05 03:19:03;;;;;;;14.95;4.60;;;;;;;11.85;100.00;100287.00;5013441;28;20087;-66
2023/07/05 03:21:29;;;;;;;16.05;5.00;;;;;;;11.83;100.00;100274.66;5012854;28;20112;-68
2023/07/05 03:23:54;;;;;;;16.60;5.03;;;;;;;11.81;100.00;100282.63;5012959;28;20054;-61
2023/07/05 03:26:19;;;;;;;16.73;5.00;;;;;;;11.86;100.00;100278.16;5013169;28;20030;-68
2023/07/05 03:28:45;;;;;;;17.90;5.00;;;;;;;11.91;100.00;100279.88;5013165;28;20461;-65
2023/07/05 03:31:12;;;;;;;16.95;5.13;;;;;;;11.97;100.00;100285.13;5013073;28;20026;-68
2023/07/05 03:33:38;;;;;;;17.15;5.22;;;;;;;12.04;100.00;100270.94;5012772;28;20034;-68
2023/07/05 03:36:09;;;;;;;17.20;5.20;;;;;;;12.07;100.00;100270.03;5012885;28;20029;-68
2023/07/05 03:38:34;;;;;;;17.38;5.43;;;;;;;12.07;100.00;100264.75;5012994;28;20038;-67
2023/07/05 03:41:03;;;;;;;17.33;5.13;;;;;;;12.08;100.00;100272.66;5013154;28;20473;-65
2023/07/05 03:43:30;;;;;;;18.95;5.22;;;;;;;12.11;100.00;100272.63;5012836;28;20473;-69
2023/07/05 03:45:59;;;;;;;17.60;5.25;;;;;;;12.11;100.00;100285.00;5012703;28;20026;-67
2023/07/05 03:48:25;;;;;;;17.33;5.28;;;;;;;12.13;100.00;100278.81;5012878;28;20018;-68
2023/07/05 03:50:54;;;;;;;17.50;5.40;;;;;;;12.18;100.00;100274.31;5012664;28;20432;-68
2023/07/05 03:53:20;;;;;;;16.00;5.00;;;;;;;12.13;100.00;100273.50;5012576;28;20030;-67
2023/07/05 03:55:45;;;;;;;18.23;5.43;;;;;;;12.16;100.00;100269.97;5012889;28;20025;-67
2023/07/05 03:58:10;;;;;;;15.75;5.25;;;;;;;12.20;100.00;100269.00;5012497;28;20030;-68
2023/07/05 04:00:36;;;;;;;17.70;5.80;;;;;;;12.23;100.00;100254.84;5012636;28;20073;-68
2023/07/05 04:03:01;;;;;;;16.88;5.20;;;;;;;12.28;100.00;100263.63;5012781;28;20076;-68
2023/07/05 04:05:29;;;;;;;17.38;5.40;;;;;;;12.28;100.00;100253.91;5012601;28;20026;-63
2023/07/05 04:07:54;;;;;;;16.60;5.07;;;;;;;12.29;100.00;100253.00;5012565;28;20026;-65
2023/07/05 04:10:20;;;;;;;18.60;5.38;;;;;;;12.28;100.00;100263.63;5012652;28;20022;-67
2023/07/05 04:12:45;;;;;;;17.40;5.68;;;;;;;12.26;100.00;100266.31;5012496;28;20022;-68
2023/07/05 04:15:10;;;;;;;17.35;5.38;;;;;;;12.40;100.00;100271.41;5012700;28;20073;-67
2023/07/05 04:17:36;;;;;;;18.08;5.30;;;;;;;12.38;100.00;100267.94;5012806;28;20033;-60
2023/07/05 04:20:03;;;;;;;18.17;5.47;;;;;;;12.43;100.00;100275.81;5016213;28;20034;-67
2023/07/05 04:22:31;;;;;;;18.38;5.40;;;;;;;12.45;100.00;100256.34;5016371;28;20484;-66
2023/07/05 04:24:56;;;;;;;17.23;5.18;;;;;;;12.59;100.00;100268.53;5015945;28;20046;-64
2023/07/05 04:27:21;;;;;;;17.77;5.38;;;;;;;12.58;100.00;100274.72;5016089;28;20104;-60
2023/07/05 04:29:47;;;;;;;16.95;5.47;;;;;;;12.73;100.00;100269.25;5016293;28;20045;-60
2023/07/05 04:32:12;;;;;;;18.65;5.30;;;;;;;12.79;100.00;100273.59;5015966;28;20029;-61
2023/07/05 04:34:40;;;;;;;18.88;5.60;;;;;;;12.86;100.00;100268.16;5015858;28;20034;-68
2023/07/05 04:37:05;;;;;;;17.92;5.30;;;;;;;12.99;100.00;100257.38;5016073;28;20113;-68
2023/07/05 04:39:31;;;;;;;18.25;5.25;;;;;;;12.99;100.00;100263.56;5015909;28;20061;-68
2023/07/05 04:41:56;;;;;;;16.38;5.00;;;;;;;13.04;100.00;100253.75;5016010;28;20482;-68
2023/07/05 04:44:22;;;;;;;16.67;4.95;;;;;;;13.08;100.00;100271.38;5015925;28;20640;-65
2023/07/05 04:46:47;;;;;;;18.13;5.43;;;;;;;13.01;100.00;100271.50;5015824;28;20038;-67
2023/07/05 04:49:12;;;;;;;18.58;5.40;;;;;;;13.00;100.00;100280.34;5015643;28;20026;-61
2023/07/05 04:51:38;;;;;;;17.35;4.97;;;;;;;13.02;100.00;100268.81;5016083;28;20061;-64
2023/07/05 04:54:03;;;;;;;16.90;5.25;;;;;;;13.02;100.00;100273.25;5015541;28;20538;-67
2023/07/05 04:56:28;;;;;;;16.15;4.90;;;;;;;13.05;100.00;100267.91;5015736;28;20026;-60
2023/07/05 04:58:54;;;;;;;18.20;5.10;;;;;;;13.11;100.00;100265.16;5015419;28;20033;-68
2023/07/05 05:01:19;;;;;;;19.02;5.25;;;;;;;13.07;100.00;100271.41;5015466;28;20041;-68
2023/07/05 05:03:45;;;;;;;16.55;5.03;;;;;;;13.07;100.00;100276.72;5015983;28;20551;-67
2023/07/05 05:06:10;;;;;;;17.35;5.28;;;;;;;13.01;100.00;100275.03;5015733;28;20038;-67
2023/07/05 05:08:36;;;;;;;18.30;5.22;;;;;;;13.11;100.00;100273.13;5015256;28;20476;-65
2023/07/05 05:11:03;;;;;;;16.95;5.00;;;;;;;13.22;100.00;100278.25;5015438;28;20389;-63
2023/07/05 05:13:31;;;;;;;16.15;4.90;;;;;;;13.27;100.00;100280.84;5015170;28;20080;-67
2023/07/05 05:15:57;;;;;;;17.10;4.90;;;;;;;13.23;100.00;100278.22;5015196;28;20022;-67
2023/07/05 05:18:23;;;;;;;18.33;4.90;;;;;;;13.18;100.00;100287.19;5015313;28;20030;-63
2023/07/05 05:20:49;;;;;;;15.48;4.60;;;;;;;13.21;100.00;100282.69;5015102;28;20428;-66
2023/07/05 05:23:15;;;;;;;15.85;4.72;;;;;;;13.20;100.00;100290.69;5015100;28;20026;-69
2023/07/05 05:25:42;;;;;;;17.10;4.90;;;;;;;13.19;100.00;100291.56;5015015;28;20120;-69
2023/07/05 05:28:08;;;;;;;14.93;4.68;;;;;;;13.15;100.00;100284.53;5014992;28;20104;-69
2023/07/05 05:30:34;;;;;;;16.83;4.50;;;;;;;13.20;100.00;100282.72;5014687;28;20122;-69
2023/07/05 05:33:00;;;;;;;15.70;4.60;;;;;;;13.20;100.00;100280.91;5014856;28;20469;-69
2023/07/05 05:35:27;;;;;;;16.63;4.60;;;;;;;13.13;100.00;100281.91;5015079;28;20118;-70
2023/07/05 05:37:53;;;;;;;15.70;4.68;;;;;;;13.06;100.00;100296.16;5014762;28;20393;-69
2023/07/05 05:40:18;;;;;;;16.25;4.70;;;;;;;13.09;100.00;100290.81;5014995;28;20025;-70
2023/07/05 05:42:44;;;;;;;17.67;4.80;;;;;;;13.09;100.00;100280.19;5014621;28;20030;-69
2023/07/05 05:45:12;;;;;;;16.65;4.70;;;;;;;13.07;100.00;100296.16;5014626;28;20112;-70
2023/07/05 05:47:37;;;;;;;16.73;4.80;;;;;;;13.10;100.00;100316.47;5001485;28;20037;-69
2023/07/05 05:50:03;;;;;;;17.38;4.70;;;;;;;13.05;100.00;100286.47;5010772;28;20053;-70
2023/07/05 05:52:29;;;;;;;16.75;5.07;;;;;;;12.65;100.00;100310.88;5014329;28;20030;-70
2023/07/05 05:54:54;;;;;;;15.88;4.82;;;;;;;12.64;100.00;100303.81;5013979;28;20555;-70
2023/07/05 05:57:20;;;;;;;16.13;4.60;;;;;;;12.74;100.00;100294.84;5014446;28;20044;-63
2023/07/05 05:59:45;;;;;;;16.30;4.80;;;;;;;12.84;100.00;100308.88;5014411;28;20053;-63
2023/07/05 06:02:10;;;;;;;18.58;4.80;;;;;;;12.97;100.00;100304.28;5014312;28;20095;-65
2023/07/05 06:04:36;;;;;;;17.02;4.75;;;;;;;13.03;100.00;100331.59;5014120;28;20026;-61
2023/07/05 06:07:01;;;;;;;15.75;4.63;;;;;;;12.87;100.00;100327.38;5013884;28;20037;-63
2023/07/05 06:09:26;;;;;;;16.70;4.97;;;;;;;12.51;100.00;100346.41;5014008;28;20068;-66
2023/07/05 06:11:52;;;;;;;16.33;4.57;;;;;;;12.57;100.00;100318.94;5014177;28;20069;-61
2023/07/05 06:14:17;;;;;;;15.63;4.80;;;;;;;12.81;100.00;100343.38;5014159;28;20091;-59
2023/07/05 06:16:42;;;;;;;16.23;4.90;;;;;;;12.80;100.00;100334.56;5013665;28;20033;-59
2023/07/05 06:19:08;;;;;;;16.73;4.88;;;;;;;12.47;100.00;100341.16;5013752;28;20026;-60
2023/07/05 06:21:33;;;;;;;17.33;4.88;;;;;;;12.21;100.00;100348.47;5013829;28;20026;-60
2023/07/05 06:23:58;;;;;;;16.38;4.90;;;;;;;12.09;100.00;100350.41;5013820;28;20054;-64
2023/07/05 06:26:25;;;;;;;16.52;4.70;;;;;;;12.33;100.00;100343.94;5014049;28;20123;-60
2023/07/05 06:28:50;;;;;;;15.63;4.43;;;;;;;12.62;100.00;100393.13;5013883;28;20480;-61
2023/07/05 06:31:17;;;;;;;15.45;4.38;;;;;;;12.88;100.00;100360.97;5015812;28;20026;-61
2023/07/05 06:33:43;;;;;;;12.60;4.20;;;;;;;13.01;100.00;100365.22;5013302;28;20038;-62
2023/07/05 06:36:09;;;;;;;15.52;4.10;;;;;;;13.12;100.00;100396.94;5013557;28;20103;-63
2023/07/05 06:38:35;;;;;;;14.40;4.13;;;;;;;13.22;100.00;100374.69;5013554;28;20044;-61
2023/07/05 06:41:00;;;;;;;15.77;4.53;;;;;;;13.38;100.00;100351.47;5012847;28;20022;-67
2023/07/05 06:43:26;;;;;;;13.68;4.35;;;;;;;13.41;100.00;100358.50;5013117;28;20034;-72
2023/07/05 06:45:54;;;;;;;13.20;4.20;;;;;;;13.40;100.00;100372.69;5013265;28;20041;-67
2023/07/05 06:48:20;;;;;;;15.38;4.13;;;;;;;13.54;100.00;100376.03;5013308;28;20092;-65
2023/07/05 06:50:56;;;;;;;14.43;4.03;;;;;;;13.68;100.00;100378.44;5013553;28;20026;-69
2023/07/05 06:53:22;;;;;;;15.07;4.20;;;;;;;13.64;100.00;100381.19;5010310;28;20350;-66
2023/07/05 06:55:48;;;;;;;13.65;3.97;;;;;;;13.64;100.00;100389.16;5013133;28;20057;-70
2023/07/05 06:58:15;;;;;;;15.52;4.00;;;;;;;13.65;100.00;100389.13;5013234;28;20030;-65
2023/07/05 07:00:40;;;;;;;16.75;4.20;;;;;;;13.76;100.00;100389.84;5013132;28;20040;-66
2023/07/05 07:03:05;;;;;;;13.13;3.92;;;;;;;13.93;100.00;100373.59;5013123;28;20389;-69
2023/07/05 07:05:31;;;;;;;17.73;4.40;;;;;;;14.10;100.00;100401.69;5012715;28;20034;-70
2023/07/05 07:07:57;;;;;;;15.18;4.13;;;;;;;14.20;100.00;100405.03;5013113;28;20025;-69
2023/07/05 07:10:22;;;;;;;14.02;3.70;;;;;;;14.05;100.00;100395.56;5009189;28;20030;-67
2023/07/05 07:12:48;;;;;;;13.85;3.67;;;;;;;14.01;100.00;100423.97;5013067;28;20519;-66
2023/07/05 07:15:13;;;;;;;11.73;3.88;;;;;;;14.13;100.00;100414.91;5012862;28;20124;-69
2023/07/05 07:17:38;;;;;;;12.77;3.50;;;;;;;14.05;100.00;100430.09;5012391;28;20061;-66
2023/07/05 07:20:05;;;;;;;12.18;3.58;;;;;;;13.68;100.00;100474.06;5013323;28;20029;-69
2023/07/05 07:22:30;;;;;;;11.38;3.72;;;;;;;13.47;100.00;100442.50;5012834;28;20029;-69
2023/07/05 07:24:56;;;;;;;13.63;3.90;;;;;;;13.18;100.00;100447.28;5012803;28;20046;-69
2023/07/05 07:27:21;;;;;;;12.60;4.00;;;;;;;12.86;100.00;100437.94;5012836;28;20046;-69
2023/07/05 07:29:46;;;;;;;14.95;4.28;;;;;;;12.50;100.00;100473.66;5013122;28;20137;-62
2023/07/05 07:32:12;;;;;;;14.85;4.53;;;;;;;12.09;100.00;100470.47;5012968;28;20478;-63
2023/07/05 07:34:37;;;;;;;14.52;4.95;;;;;;;11.66;100.00;100469.00;5012573;28;20042;-67
2023/07/05 07:37:03;;;;;;;16.52;5.60;;;;;;;11.44;100.00;100485.88;5012567;28;20113;-65
2023/07/05 07:39:29;;;;;;;17.05;5.60;;;;;;;11.27;100.00;100502.72;5012856;28;20507;-66
2023/07/05 07:41:55;;;;;;;16.35;5.57;;;;;;;11.25;100.00;100514.19;5012327;28;20037;-65
2023/07/05 07:44:20;;;;;;;15.93;5.63;;;;;;;11.23;100.00;100503.59;5012827;28;20026;-66
2023/07/05 07:46:46;;;;;;;18.25;5.93;;;;;;;11.21;100.00;100517.72;5012677;28;20113;-65
2023/07/05 07:49:12;;;;;;;17.45;6.35;;;;;;;11.17;100.00;100532.72;5012487;28;20458;-64
2023/07/05 07:51:40;;;;;;;18.77;6.25;;;;;;;11.20;100.00;100529.16;5013073;28;20489;-66
2023/07/05 07:54:11;;;;;;;18.95;7.03;;;;;;;11.24;100.00;100539.75;5017178;28;20021;-64
2023/07/05 07:56:36;;;;;;;19.30;6.78;;;;;;;11.27;100.00;100560.00;5002946;28;20036;-61
2023/07/05 07:59:06;;;;;;;18.40;6.75;;;;;;;11.30;100.00;100552.97;5016924;28;20022;-64
2023/07/05 08:01:33;;;;;;;18.80;6.72;;;;;;;11.33;100.00;100552.09;5013664;28;20034;-65
2023/07/05 08:04:01;;;;;;;20.15;7.50;;;;;;;11.33;100.00;100545.00;5005760;28;20521;-64
2023/07/05 08:06:41;;;;;;;19.13;7.32;;;;;;;11.29;100.00;100551.19;5011407;28;20028;-62
2023/07/05 08:09:11;;;;;;;19.63;7.10;;;;;;;11.20;100.00;100561.81;5016292;28;20556;-64
2023/07/05 08:11:38;;;;;;;19.50;7.50;;;;;;;11.21;100.00;100589.16;5016222;28;20663;-64
2023/07/05 08:14:04;;;;;;;19.35;7.10;;;;;;;11.19;100.00;100564.47;5016115;28;20045;-64
2023/07/05 08:16:29;;;;;;;18.92;6.88;;;;;;;11.25;100.00;100559.16;5016088;28;20034;-65
2023/07/05 08:18:54;;;;;;;19.45;7.40;;;;;;;11.51;100.00;100565.22;5016143;28;20037;-65
2023/07/05 08:21:20;;;;;;;19.63;7.72;;;;;;;11.78;100.00;100560.72;5016021;28;20117;-64
2023/07/05 08:23:45;;;;;;;20.00;7.45;;;;;;;11.96;100.00;100569.47;5015610;28;20421;-65
2023/07/05 08:26:12;;;;;;;19.30;7.90;;;;;;;12.20;100.00;100558.72;5016259;28;20181;-65
2023/07/05 08:28:37;;;;;;;20.00;8.75;;;;;;;12.66;100.00;100567.22;5016330;28;20105;-65
2023/07/05 08:31:04;;;;;;;19.67;8.60;;;;;;;12.84;100.00;100580.31;5010962;28;20045;-65
2023/07/05 08:33:31;;;;;;;21.08;9.20;;;;;;;13.12;100.00;100563.22;5007648;28;20033;-61
2023/07/05 08:36:12;;;;;;;19.40;7.38;;;;;;;13.32;100.00;100563.00;5018995;28;20125;-65
2023/07/05 08:38:39;;;;;;;19.33;7.30;;;;;;;13.73;100.00;100564.31;5015585;28;20048;-61
2023/07/05 08:41:24;;;;;;;19.83;7.25;;;;;;;13.93;100.00;100575.53;5015462;28;20030;-73
2023/07/05 08:43:52;;;;;;;18.10;6.80;;;;;;;13.83;100.00;100581.00;5013272;28;20077;-62
2023/07/05 08:46:19;;;;;;;19.75;6.80;;;;;;;13.98;100.00;100578.16;5015693;28;20528;-69
2023/07/05 08:48:47;;;;;;;17.65;6.70;;;;;;;13.97;100.00;100583.50;5015213;28;20025;-66
2023/07/05 08:51:15;;;;;;;19.95;7.00;;;;;;;14.12;100.00;100577.94;5015421;28;20097;-71
2023/07/05 08:53:55;;;;;;;19.70;6.47;;;;;;;14.29;100.00;100580.38;5015603;28;20370;-68
2023/07/05 08:56:26;;;;;;;17.73;6.43;;;;;;;14.32;100.00;100576.78;5015302;28;20100;-66
2023/07/05 08:59:20;;;;;;;20.80;6.60;;;;;;;14.48;100.00;100586.28;5015338;28;20105;-71
2023/07/05 09:01:48;;;;;;;19.08;6.45;;;;;;;14.68;100.00;100585.09;5003939;28;20030;-70
2023/07/05 09:04:24;;;;;;;18.77;6.25;;;;;;;14.82;100.00;100602.59;5005777;28;20089;-66
2023/07/05 09:07:20;;;;;;;19.60;6.20;;;;;;;14.91;100.00;100596.25;5006457;28;20025;-64
2023/07/05 09:10:30;;;;;;;20.30;5.95;;;;;;;15.29;100.00;100617.72;5012725;28;20037;-64
2023/07/05 09:12:58;;;;;;;17.08;5.38;;;;;;;15.55;100.00;100638.53;4993474;28;20046;-65
2023/07/05 09:15:29;;;;;;;16.40;5.30;;;;;;;15.82;100.00;100612.28;5015051;28;20129;-65
2023/07/05 09:18:27;;;;;;;18.80;5.00;;;;;;;16.10;100.00;100630.34;5014723;28;20500;-65
2023/07/05 09:21:17;;;;;;;18.10;5.57;;;;;;;15.99;100.00;100622.59;5014429;28;20098;-65
2023/07/05 09:23:51;;;;;;;18.40;5.43;;;;;;;16.11;100.00;100634.78;5014482;28;20523;-64
2023/07/05 09:26:23;;;;;;;19.48;4.72;;;;;;;15.90;100.00;100617.44;5008453;28;20378;-65
2023/07/05 09:29:19;;;;;;;17.23;4.97;;;;;;;16.09;100.00;100639.25;5006590;28;20470;-63
2023/07/05 09:31:46;;;;;;;19.10;5.30;;;;;;;16.25;100.00;100635.38;5011689;28;20308;-62
2023/07/05 09:34:40;;;;;;;15.43;4.75;;;;;;;16.48;100.00;100639.28;5011560;28;20366;-66
2023/07/05 09:37:42;;;;;;;15.82;4.57;;;;;;;16.76;100.00;100649.28;5014445;28;20346;-64
2023/07/05 09:40:25;;;;;;;17.13;4.25;;;;;;;16.79;100.00;100649.22;5008347;28;20065;-60
2023/07/05 09:43:05;;;;;;;16.80;4.25;;;;;;;17.01;100.00;100695.88;5014472;28;20030;-61
2023/07/05 09:45:31;;;;;;;16.95;3.58;;;;;;;16.98;100.00;100647.88;5014543;28;20041;-62
2023/07/05 09:47:59;;;;;;;12.05;3.45;;;;;;;17.07;100.00;100678.81;5014389;28;20026;-63
2023/07/05 09:50:25;;;;;;;14.40;3.70;;;;;;;17.35;100.00;100638.91;5013954;28;20547;-64
2023/07/05 09:52:52;;;;;;;15.55;3.40;;;;;;;17.34;100.00;100701.25;5014360;28;20034;-62
2023/07/05 09:55:19;;;;;;;13.65;3.28;;;;;;;17.48;100.00;100700.03;5014527;28;20543;-61
2023/07/05 09:57:45;;;;;;;12.85;3.10;;;;;;;17.55;100.00;100688.28;5014073;28;20038;-65
2023/07/05 10:00:29;;;;;;;11.77;3.10;;;;;;;17.67;100.00;100684.38;5014164;28;20026;-65
2023/07/05 10:03:04;;;;;;;14.70;3.38;;;;;;;17.64;100.00;100706.72;5010256;28;20061;-65
2023/07/05 10:05:30;;;;;;;11.52;2.95;;;;;;;17.88;100.00;100715.88;5014090;28;20037;-65
2023/07/05 10:08:01;;;;;;;17.75;2.95;;;;;;;18.25;94.35;100770.13;5014135;28;20033;-65
2023/07/05 10:10:34;;;;;;;13.85;3.10;;;;;;;17.86;92.06;100707.00;5014043;28;20022;-66
2023/07/05 10:13:11;;;;;;;15.95;2.95;;;;;;;17.58;86.38;100717.56;5013694;28;20030;-66
2023/07/05 10:15:45;;;;;;;12.40;3.03;;;;;;;18.60;81.62;100734.28;5009896;28;20382;-60
2023/07/05 10:18:45;;;;;;;13.18;2.97;;;;;;;19.31;73.66;100728.50;5009890;28;20061;-62
2023/07/05 10:21:20;;;;;;;14.52;3.00;;;;;;;19.22;69.71;100718.09;4892741;29;20492;-63
2023/07/05 10:23:48;;;;;;;13.82;3.13;;;;;;;19.31;69.29;100740.09;4996732;28;20061;-64
2023/07/05 10:26:16;;;;;;;11.82;3.22;;;;;;;19.62;70.73;100740.84;5014140;28;20112;-64
2023/07/05 10:28:42;;;;;;;12.88;2.80;;;;;;;20.44;65.26;100735.22;5013230;28;20588;-63
2023/07/05 10:31:29;;;;;;;12.73;2.75;;;;;;;19.90;61.61;100761.34;5013487;28;20120;-62
2023/07/05 10:34:20;;;;;;;13.77;2.90;;;;;;;20.15;63.73;100764.00;5013685;28;20041;-66
2023/07/05 10:36:46;;;;;;;13.05;2.92;;;;;;;19.26;61.12;100760.78;5012245;28;20026;-66
2023/07/05 10:39:11;;;;;;;11.45;2.70;;;;;;;19.29;61.74;100773.22;5013186;28;20508;-68
2023/07/05 10:41:40;;;;;;;16.40;2.83;;;;;;;20.22;58.87;100778.09;5014024;28;20033;-68
2023/07/05 10:44:24;;;;;;;13.43;2.75;;;;;;;19.52;60.44;100794.75;5013405;28;20041;-67
2023/07/05 10:46:50;;;;;;;13.30;2.78;;;;;;;19.30;60.74;100778.53;5009595;28;20065;-65
2023/07/05 10:49:19;;;;;;;12.98;2.63;;;;;;;18.95;59.01;100766.28;5013690;28;20026;-68
2023/07/05 10:51:50;;;;;;;14.85;2.70;;;;;;;19.54;59.70;100767.03;5011511;28;20033;-61
2023/07/05 10:54:42;;;;;;;11.75;2.70;;;;;;;20.35;56.46;100779.38;5015898;28;20034;-65
2023/07/05 10:57:22;;;;;;;11.38;2.95;;;;;;;20.49;55.39;100800.31;5000278;28;20395;-69
2023/07/05 11:00:04;;;;;;;13.23;2.70;;;;;;;20.52;55.75;100784.13;5009679;28;20400;-73
2023/07/05 11:02:55;;;;;;;11.80;2.63;;;;;;;20.64;55.68;100810.50;4993314;28;20075;-67
2023/07/05 11:05:29;;;;;;;11.23;2.40;;;;;;;21.32;50.60;100806.97;5010590;28;20036;-63
2023/07/05 11:08:00;;;;;;;14.45;2.60;;;;;;;21.48;49.15;100800.03;5013010;28;20026;-61
2023/07/05 11:10:27;;;;;;;12.27;2.60;;;;;;;21.44;50.15;100803.78;5013212;28;20029;-65
2023/07/05 11:12:53;;;;;;;13.32;2.75;;;;;;;22.02;48.97;100813.91;5012918;28;20022;-67
2023/07/05 11:15:21;;;;;;;12.63;2.67;;;;;;;21.42;49.82;100779.66;5012745;28;20030;-62
2023/07/05 11:17:48;;;;;;;12.48;2.67;;;;;;;21.94;49.74;100803.50;5015803;28;20497;-64